Time;durP1;ratioP1;P1;durP2;ratioP2;P2;SDS_P1;SDS_P2;PMS_P1;PMS_P2;Temp;Humidity;BMP_temperature;BMP_pressure;BME280_temperature;BME280_humidity;BME280_pressure;Samples;Min_cycle;Max_cycle;Signal;HPM_P1;HPM_P2
2022/07/12 00:02:10;;;;;;;0.50;0.50;;;15.50;60.80;;;15.59;47.45;95488.03;4995551;28;20256;-79
2022/07/12 00:04:37;;;;;;;0.60;0.60;;;15.50;61.00;;;15.57;47.11;95485.56;4998350;28;20677;-79
2022/07/12 00:07:05;;;;;;;0.60;0.60;;;15.50;60.90;;;15.55;47.13;95489.44;4996956;28;20223;-78
2022/07/12 00:09:32;;;;;;;0.40;0.40;;;15.50;61.00;;;15.61;47.34;95492.09;5011676;28;20195;-79
2022/07/12 00:11:59;;;;;;;0.75;0.75;;;15.40;61.10;;;15.58;47.34;95492.47;4995822;28;20216;-77
2022/07/12 00:14:27;;;;;;;0.60;0.60;;;15.40;61.10;;;15.56;47.57;95491.88;5027922;28;20196;-79
2022/07/12 00:16:54;;;;;;;0.52;0.52;;;15.50;61.20;;;15.52;47.59;95478.25;5031844;28;20247;-78
2022/07/12 00:19:21;;;;;;;0.50;0.50;;;15.40;61.30;;;15.55;47.64;95486.81;5023871;28;20283;-79
2022/07/12 00:21:48;;;;;;;0.70;0.70;;;15.40;61.40;;;15.51;47.65;95479.31;4994991;28;20295;-79
2022/07/12 00:24:15;;;;;;;0.50;0.50;;;15.40;61.40;;;15.51;47.60;95478.47;5010300;28;20208;-78
2022/07/12 00:26:42;;;;;;;0.40;0.40;;;15.40;61.30;;;15.48;47.67;95478.91;5028463;28;20246;-79
2022/07/12 00:29:10;;;;;;;0.60;0.60;;;15.30;61.30;;;15.46;47.24;95483.59;5015247;28;20188;-79
2022/07/12 00:31:37;;;;;;;0.70;0.70;;;15.30;61.30;;;15.40;47.59;95482.56;5014211;28;20322;-79
2022/07/12 00:34:04;;;;;;;0.50;0.50;;;15.30;61.40;;;15.37;47.79;95483.81;5013420;28;20199;-78
2022/07/12 00:36:31;;;;;;;0.50;0.50;;;15.30;61.50;;;15.35;47.71;95482.38;5014881;28;20224;-79
2022/07/12 00:38:58;;;;;;;0.50;0.50;;;15.30;61.50;;;15.30;48.86;95475.06;5031386;28;20188;-79
2022/07/12 00:41:25;;;;;;;0.60;0.60;;;15.30;62.00;;;15.31;48.25;95478.53;5014739;28;20255;-79
2022/07/12 00:43:53;;;;;;;0.50;0.50;;;15.20;61.70;;;15.31;48.00;95471.41;5011814;28;20243;-79
2022/07/12 00:46:23;;;;;;;0.50;0.50;;;15.20;61.80;;;15.32;48.42;95480.19;5029352;28;20295;-79
2022/07/12 00:48:51;;;;;;;0.50;0.50;;;15.20;61.90;;;15.32;48.42;95477.53;5000671;28;20285;-78
2022/07/12 00:51:19;;;;;;;0.70;0.70;;;15.20;62.00;;;15.35;48.21;95477.91;5028860;28;20218;-78
2022/07/12 00:53:46;;;;;;;0.60;0.60;;;15.30;62.20;;;15.35;48.32;95467.34;5014155;28;20214;-78
2022/07/12 00:56:14;;;;;;;0.63;0.63;;;15.20;62.00;;;15.39;48.19;95480.94;4993533;28;20221;-79
2022/07/12 00:58:43;;;;;;;0.60;0.60;;;15.20;62.00;;;15.42;48.72;95477.09;5010807;28;20654;-78
2022/07/12 01:01:11;;;;;;;0.50;0.50;;;15.30;62.60;;;15.47;49.17;95474.63;5027237;28;20211;-79
2022/07/12 01:03:39;;;;;;;0.50;0.50;;;15.30;62.70;;;15.52;48.87;95477.47;4981576;28;20650;-79
2022/07/12 01:06:07;;;;;;;0.50;0.50;;;15.40;62.70;;;15.55;49.06;95474.41;5015402;28;20220;-79
2022/07/12 01:08:35;;;;;;;0.50;0.50;;;15.50;62.90;;;15.60;49.29;95477.22;5016835;28;20701;-79
2022/07/12 01:11:03;;;;;;;0.50;0.50;;;15.40;62.80;;;15.64;49.55;95477.63;5015064;28;20225;-79
2022/07/12 01:13:31;;;;;;;0.50;0.50;;;15.40;62.90;;;15.73;49.77;95483.50;4997496;28;20575;-78
2022/07/12 01:15:58;;;;;;;0.60;0.60;;;15.50;62.90;;;15.78;49.70;95481.84;5031124;28;20216;-79
2022/07/12 01:18:27;;;;;;;0.70;0.70;;;15.60;63.10;;;15.81;49.54;95477.97;5030766;28;20829;-79
2022/07/12 01:20:55;;;;;;;0.50;0.50;;;15.70;63.10;;;15.84;49.21;95478.38;5016388;28;20252;-79
2022/07/12 01:23:25;;;;;;;0.50;0.50;;;15.70;63.00;;;15.86;50.11;95475.53;5006777;28;20250;-79
2022/07/12 01:25:52;;;;;;;0.50;0.50;;;15.70;63.10;;;15.90;49.70;95474.06;4997923;28;20222;-79
2022/07/12 01:28:25;;;;;;;0.63;0.63;;;15.80;63.20;;;15.90;50.26;95471.44;4999506;28;20204;-79
2022/07/12 01:30:52;;;;;;;0.50;0.50;;;15.80;63.30;;;15.90;49.82;95468.78;4982469;28;20224;-79
2022/07/12 01:33:20;;;;;;;0.50;0.50;;;15.80;63.30;;;15.92;50.11;95464.09;4998691;28;20627;-79
2022/07/12 01:35:47;;;;;;;0.50;0.50;;;15.90;63.40;;;15.94;50.00;95461.22;5028260;28;20268;-79
2022/07/12 01:38:16;;;;;;;0.50;0.50;;;15.90;63.40;;;15.94;50.56;95464.72;5014708;28;20224;-79
2022/07/12 01:40:43;;;;;;;0.60;0.60;;;15.90;63.60;;;15.94;49.94;95463.88;5019240;28;20287;-79
2022/07/12 01:43:11;;;;;;;0.50;0.50;;;15.90;63.50;;;15.91;50.88;95464.31;5014594;28;20196;-77
2022/07/12 01:45:38;;;;;;;0.50;0.50;;;15.90;63.60;;;15.92;50.30;95465.94;5001679;28;20221;-79
2022/07/12 01:48:05;;;;;;;0.50;0.50;;;15.90;63.60;;;15.91;50.36;95467.75;5033322;28;20204;-79
2022/07/12 01:50:34;;;;;;;0.70;0.70;;;15.90;63.60;;;15.89;50.25;95474.28;4998851;28;20231;-79
2022/07/12 01:53:01;;;;;;;0.50;0.50;;;15.90;63.60;;;15.86;50.40;95472.09;4998223;28;20193;-78
2022/07/12 01:55:29;;;;;;;0.70;0.70;;;15.90;63.60;;;15.81;50.98;95473.47;5001323;28;20248;-79
2022/07/12 01:57:57;;;;;;;0.50;0.50;;;15.90;63.90;;;15.76;51.32;95462.72;4986076;28;20323;-78
2022/07/12 02:00:25;;;;;;;0.50;0.50;;;15.80;63.90;;;15.74;51.00;95470.03;4998582;28;20213;-79
2022/07/12 02:02:52;;;;;;;0.50;0.50;;;15.80;64.00;;;15.69;52.06;95469.88;5001201;28;20596;-79
2022/07/12 02:05:20;;;;;;;0.60;0.60;;;15.80;64.20;;;15.68;51.57;95470.88;5017884;28;20224;-79
2022/07/12 02:07:49;;;;;;;0.50;0.50;;;15.80;64.20;;;15.65;51.84;95473.97;5017191;28;20291;-78
2022/07/12 02:10:16;;;;;;;0.60;0.60;;;15.70;64.20;;;15.61;52.18;95468.28;5017256;28;20216;-78
2022/07/12 02:12:43;;;;;;;0.50;0.50;;;15.70;64.40;;;15.60;52.16;95479.88;5011304;28;20219;-79
2022/07/12 02:15:10;;;;;;;0.50;0.50;;;15.70;64.70;;;15.62;51.43;95475.16;5032708;28;20196;-78
2022/07/12 02:17:37;;;;;;;0.60;0.60;;;15.70;64.60;;;15.63;52.07;95478.66;5017290;28;20255;-78
2022/07/12 02:20:06;;;;;;;0.50;0.50;;;15.70;64.60;;;15.62;51.82;95475.16;5010274;28;20541;-79
2022/07/12 02:22:34;;;;;;;0.50;0.50;;;15.70;64.70;;;15.63;51.58;95476.78;5013354;28;20212;-79
2022/07/12 02:25:01;;;;;;;0.50;0.50;;;15.70;64.80;;;15.63;52.59;95471.50;4981736;28;20223;-79
2022/07/12 02:27:28;;;;;;;0.50;0.50;;;15.70;65.00;;;15.65;52.43;95466.84;4997764;28;20212;-80
2022/07/12 02:29:55;;;;;;;0.50;0.50;;;15.70;64.90;;;15.65;52.61;95474.75;5014312;28;20637;-77
2022/07/12 02:32:24;;;;;;;0.63;0.63;;;15.80;65.00;;;15.65;52.59;95469.47;5015715;28;20203;-79
2022/07/12 02:34:51;;;;;;;0.50;0.50;;;15.80;65.20;;;15.64;52.60;95459.13;5000222;28;20201;-78
2022/07/12 02:37:18;;;;;;;0.50;0.50;;;15.80;65.10;;;15.62;53.01;95471.72;5014505;28;20235;-79
2022/07/12 02:39:45;;;;;;;0.50;0.50;;;15.80;65.20;;;15.62;52.79;95477.00;5021022;28;20208;-79
2022/07/12 02:42:12;;;;;;;0.50;0.50;;;15.70;65.30;;;15.57;53.21;95480.28;4997208;28;20244;-79
2022/07/12 02:44:39;;;;;;;0.50;0.50;;;15.70;65.50;;;15.54;53.04;95475.44;5024641;28;20222;-79
2022/07/12 02:47:07;;;;;;;0.45;0.45;;;15.70;65.50;;;15.47;53.45;95474.63;5014884;28;20686;-79
2022/07/12 02:49:34;;;;;;;0.63;0.63;;;15.70;65.60;;;15.39;53.91;95475.66;5028513;28;20635;-79
2022/07/12 02:52:02;;;;;;;0.60;0.60;;;15.70;65.80;;;15.36;54.16;95478.72;5008832;28;20223;-79
2022/07/12 02:54:29;;;;;;;0.40;0.40;;;15.60;65.80;;;15.31;54.30;95482.00;4996930;28;20255;-79
2022/07/12 02:56:56;;;;;;;0.50;0.50;;;15.50;66.10;;;15.24;54.42;95481.19;4999382;28;20235;-79
2022/07/12 02:59:24;;;;;;;0.57;0.57;;;15.50;66.20;;;15.20;54.34;95491.38;5017626;28;20750;-79
2022/07/12 03:01:51;;;;;;;0.50;0.50;;;15.40;66.10;;;15.11;55.25;95492.63;5037112;28;20225;-79
2022/07/12 03:04:18;;;;;;;0.50;0.50;;;15.40;66.40;;;15.10;54.61;95487.50;5006779;28;20196;-79
2022/07/12 03:06:46;;;;;;;0.40;0.40;;;15.40;66.40;;;15.08;54.65;95494.84;4998684;28;20207;-78
2022/07/12 03:09:13;;;;;;;0.52;0.52;;;15.30;66.40;;;15.02;55.28;95493.84;5002581;28;20609;-79
2022/07/12 03:11:40;;;;;;;0.57;0.57;;;15.20;66.60;;;15.02;54.96;95493.84;5011154;28;20287;-78
2022/07/12 03:14:07;;;;;;;0.40;0.40;;;15.20;66.60;;;15.00;55.22;95494.06;5015074;28;20232;-78
2022/07/12 03:16:34;;;;;;;0.50;0.50;;;15.20;66.80;;;15.01;55.10;95487.75;5011665;28;20299;-79
2022/07/12 03:19:01;;;;;;;0.60;0.60;;;15.20;66.90;;;15.05;54.53;95490.81;5021375;28;20235;-79
2022/07/12 03:21:28;;;;;;;0.70;0.70;;;15.20;66.90;;;15.07;54.98;95496.66;5012520;28;20221;-79
2022/07/12 03:23:55;;;;;;;0.60;0.60;;;15.20;67.00;;;15.05;55.32;95502.16;5011742;28;20203;-78
2022/07/12 03:26:23;;;;;;;0.60;0.60;;;15.20;67.10;;;15.10;55.08;95511.28;5037464;28;20602;-79
2022/07/12 03:28:50;;;;;;;0.70;0.70;;;15.20;66.90;;;15.14;54.41;95513.31;5006084;28;20626;-78
2022/07/12 03:31:17;;;;;;;0.50;0.50;;;15.20;66.90;;;15.17;54.79;95514.75;5004545;28;20299;-79
2022/07/12 03:33:44;;;;;;;0.50;0.50;;;15.20;67.10;;;15.20;54.47;95514.34;4995990;28;20201;-79
2022/07/12 03:36:13;;;;;;;0.60;0.60;;;15.30;66.90;;;15.23;54.83;95513.91;4997451;28;20230;-80
2022/07/12 03:38:40;;;;;;;0.60;0.60;;;15.30;67.20;;;15.25;54.96;95524.31;5014286;28;20216;-79
2022/07/12 03:41:07;;;;;;;0.65;0.65;;;15.30;67.20;;;15.32;54.68;95519.81;5028559;28;20228;-79
2022/07/12 03:43:35;;;;;;;0.50;0.50;;;15.30;67.10;;;15.34;54.66;95521.22;5030472;28;20196;-79
2022/07/12 03:46:01;;;;;;;0.50;0.50;;;15.40;67.10;;;15.44;54.30;95519.97;5013952;28;20219;-79
2022/07/12 03:48:29;;;;;;;0.60;0.60;;;15.50;67.10;;;15.48;54.02;95518.56;5030214;28;20239;-79
2022/07/12 03:50:56;;;;;;;0.50;0.50;;;15.50;66.90;;;15.51;53.73;95520.78;5011816;28;20219;-79
2022/07/12 03:53:24;;;;;;;0.50;0.50;;;15.50;66.80;;;15.56;54.34;95515.66;5030091;28;20607;-78
2022/07/12 03:55:51;;;;;;;0.50;0.50;;;15.60;66.90;;;15.60;53.97;95518.72;5013754;28;20220;-79
2022/07/12 03:58:19;;;;;;;0.70;0.70;;;15.60;66.80;;;15.60;54.00;95508.97;5024049;28;20307;-79
2022/07/12 04:00:46;;;;;;;0.60;0.60;;;15.70;66.90;;;15.67;53.89;95517.69;5012186;28;20224;-79
2022/07/12 04:03:14;;;;;;;0.50;0.50;;;15.60;66.70;;;15.77;53.79;95521.72;5011514;28;21106;-77
2022/07/12 04:05:42;;;;;;;0.50;0.50;;;15.80;66.90;;;15.82;53.46;95520.09;5026340;28;20256;-78
2022/07/12 04:08:09;;;;;;;0.50;0.50;;;15.80;66.80;;;15.89;53.41;95519.25;5010332;28;20209;-79
2022/07/12 04:10:36;;;;;;;0.50;0.50;;;15.80;66.60;;;15.97;52.99;95513.75;4994494;28;20253;-79
2022/07/12 04:13:04;;;;;;;0.52;0.52;;;15.90;66.40;;;16.07;52.90;95515.94;5004686;28;20196;-79
2022/07/12 04:15:31;;;;;;;0.50;0.50;;;16.00;66.30;;;16.13;52.29;95513.22;4995776;28;20209;-79
2022/07/12 04:17:58;;;;;;;0.50;0.50;;;16.00;66.40;;;16.21;52.48;95520.13;4987068;28;20227;-79
2022/07/12 04:20:25;;;;;;;0.60;0.60;;;16.10;66.30;;;16.28;52.30;95510.31;5032755;28;20216;-79
2022/07/12 04:22:52;;;;;;;0.50;0.50;;;16.20;66.30;;;16.37;51.82;95508.22;5019747;28;20213;-79
2022/07/12 04:25:20;;;;;;;0.50;0.50;;;16.20;66.10;;;16.46;51.83;95514.88;5031189;28;20277;-79
2022/07/12 04:27:47;;;;;;;0.50;0.50;;;16.30;66.10;;;16.53;51.92;95516.66;5029282;28;20202;-79
2022/07/12 04:30:15;;;;;;;0.50;0.50;;;16.40;66.00;;;16.57;51.86;95515.22;5014542;28;20220;-79
2022/07/12 04:32:42;;;;;;;0.50;0.50;;;16.40;65.80;;;16.64;51.62;95516.00;4995376;28;20207;-79
2022/07/12 04:35:09;;;;;;;0.50;0.50;;;16.50;65.80;;;16.69;51.63;95521.44;5013008;28;20209;-78
2022/07/12 04:37:36;;;;;;;0.50;0.50;;;16.60;65.70;;;16.78;51.62;95525.47;4993947;28;20217;-79
2022/07/12 04:40:04;;;;;;;0.50;0.50;;;16.70;65.70;;;16.82;51.44;95520.56;5027939;28;20192;-79
2022/07/12 04:42:31;;;;;;;0.40;0.40;;;16.60;65.40;;;16.88;50.93;95518.84;5014355;28;20204;-78
2022/07/12 04:44:59;;;;;;;0.60;0.60;;;16.70;65.50;;;16.92;50.81;95525.41;5022042;28;20208;-78
2022/07/12 04:47:27;;;;;;;0.50;0.50;;;16.80;65.40;;;16.94;51.27;95536.56;5022050;28;20220;-78
2022/07/12 04:49:54;;;;;;;0.50;0.50;;;16.90;65.30;;;16.96;50.81;95532.66;5005820;28;20542;-79
2022/07/12 04:52:21;;;;;;;0.50;0.50;;;16.90;65.30;;;17.00;50.76;95534.91;5013286;28;20181;-79
2022/07/12 04:54:48;;;;;;;0.50;0.50;;;16.90;65.30;;;17.00;50.72;95533.06;5003985;28;20211;-79
2022/07/12 04:57:15;;;;;;;0.50;0.50;;;16.90;65.20;;;17.06;50.89;95532.19;5021691;28;20253;-79
2022/07/12 04:59:42;;;;;;;0.55;0.55;;;17.00;65.30;;;17.07;50.71;95535.66;5013173;28;20217;-80
2022/07/12 05:02:10;;;;;;;0.52;0.52;;;17.00;65.10;;;17.11;50.78;95539.50;5011830;28;20274;-80
2022/07/12 05:04:37;;;;;;;0.50;0.50;;;17.00;65.10;;;17.13;50.53;95529.50;4997293;28;20208;-79
2022/07/12 05:07:04;;;;;;;0.50;0.50;;;17.00;65.10;;;17.19;50.87;95541.06;4997255;28;20213;-78
2022/07/12 05:09:31;;;;;;;0.50;0.50;;;17.10;66.10;;;17.23;50.30;95539.59;5011122;28;20201;-79
2022/07/12 05:11:58;;;;;;;0.50;0.50;;;17.10;65.10;;;17.28;50.24;95537.09;5003292;28;20212;-79
2022/07/12 05:14:26;;;;;;;0.50;0.50;;;17.20;64.90;;;17.33;50.09;95531.94;5010542;28;20268;-78
2022/07/12 05:16:53;;;;;;;0.50;0.50;;;17.20;65.00;;;17.39;50.20;95544.34;5016759;28;20223;-79
2022/07/12 05:19:21;;;;;;;0.50;0.50;;;17.20;65.00;;;17.44;50.30;95541.00;5007439;28;20251;-78
2022/07/12 05:21:48;;;;;;;0.47;0.47;;;17.30;65.10;;;17.47;50.40;95535.28;5020292;28;20235;-79
2022/07/12 05:24:16;;;;;;;0.40;0.40;;;17.40;65.20;;;17.58;50.39;95542.50;5017940;28;20252;-79
2022/07/12 05:26:43;;;;;;;0.40;0.40;;;17.40;65.10;;;17.63;50.10;95541.84;5018103;28;20236;-79
2022/07/12 05:29:10;;;;;;;0.43;0.43;;;17.50;64.80;;;17.68;49.58;95538.53;5003835;28;20650;-80
2022/07/12 05:31:37;;;;;;;0.40;0.40;;;17.60;64.80;;;17.72;48.94;95547.66;5019280;28;20687;-79
2022/07/12 05:34:04;;;;;;;0.55;0.55;;;17.60;64.10;;;17.80;49.07;95546.56;5004037;28;20209;-79
2022/07/12 05:36:32;;;;;;;0.50;0.50;;;17.70;64.10;;;17.88;49.00;95549.75;5018900;28;20240;-81
2022/07/12 05:38:59;;;;;;;0.45;0.45;;;17.70;64.10;;;17.96;49.00;95547.84;5016646;28;20224;-79
2022/07/12 05:41:26;;;;;;;0.60;0.60;;;17.80;64.00;;;18.01;48.98;95548.00;5008898;28;20220;-79
2022/07/12 05:43:53;;;;;;;0.52;0.52;;;17.90;63.90;;;18.07;49.02;95542.59;4990362;28;20311;-80
2022/07/12 05:46:20;;;;;;;0.50;0.50;;;18.00;63.90;;;18.15;49.04;95545.97;4992036;28;20216;-80
2022/07/12 05:48:48;;;;;;;0.50;0.50;;;18.00;64.00;;;18.21;49.09;95550.38;5019700;28;20628;-80
2022/07/12 05:54:01;;;;;;;0.50;0.50;;;18.10;64.40;;;18.32;48.88;95548.81;5031630;28;20196;-79
2022/07/12 05:56:28;;;;;;;0.50;0.50;;;18.20;64.10;;;18.38;49.25;95546.09;5025184;28;20270;-79
2022/07/12 05:58:55;;;;;;;0.50;0.50;;;18.20;64.20;;;18.44;49.23;95544.34;5025703;28;20226;-80
2022/07/12 06:01:23;;;;;;;0.40;0.40;;;18.30;65.00;;;18.53;49.05;95548.31;5012980;28;20694;-79
2022/07/12 06:03:50;;;;;;;0.40;0.40;;;18.40;64.30;;;18.61;48.80;95549.03;4998407;28;20242;-80
2022/07/12 06:06:17;;;;;;;0.40;0.40;;;18.40;64.30;;;18.68;48.83;95552.41;5006872;28;20605;-80
2022/07/12 06:08:45;;;;;;;0.40;0.40;;;18.50;63.80;;;18.75;48.53;95549.66;5010122;28;20287;-80
2022/07/12 06:11:12;;;;;;;0.43;0.43;;;18.60;64.00;;;18.79;48.50;95551.63;5011224;28;20217;-80
2022/07/12 06:13:39;;;;;;;0.40;0.40;;;18.70;63.90;;;18.82;48.35;95551.19;5002845;28;20201;-80
2022/07/12 06:16:07;;;;;;;0.40;0.40;;;18.70;63.70;;;18.87;48.13;95555.78;4997103;28;20307;-79
2022/07/12 06:18:34;;;;;;;0.50;0.50;;;18.70;63.70;;;18.89;48.12;95551.06;5011001;28;20231;-79
2022/07/12 06:21:02;;;;;;;0.40;0.40;;;18.80;63.50;;;18.94;47.96;95548.56;5002996;28;20228;-79
2022/07/12 06:23:30;;;;;;;0.40;0.40;;;18.80;63.30;;;19.00;48.61;95552.97;5014591;28;20211;-81
2022/07/12 06:25:57;;;;;;;0.43;0.43;;;18.90;64.00;;;19.08;48.06;95554.50;5006334;28;21035;-80
2022/07/12 06:28:24;;;;;;;0.40;0.40;;;18.90;63.40;;;19.16;47.99;95545.34;5039272;28;20750;-80
2022/07/12 06:30:51;;;;;;;0.52;0.52;;;19.00;63.20;;;19.21;47.61;95542.81;4995225;28;20253;-80
2022/07/12 06:33:19;;;;;;;0.43;0.43;;;19.10;62.80;;;19.28;47.47;95548.03;4994541;28;20298;-79
2022/07/12 06:35:46;;;;;;;0.35;0.35;;;19.10;62.80;;;19.31;47.58;95545.72;5023919;28;20224;-80
2022/07/12 06:38:13;;;;;;;0.50;0.50;;;19.20;62.90;;;19.39;47.15;95551.72;5031162;28;20635;-78
2022/07/12 06:40:40;;;;;;;0.47;0.47;;;19.30;63.00;;;19.42;47.44;95546.75;4992674;28;20892;-79
2022/07/12 06:43:11;;;;;;;0.40;0.40;;;19.30;63.00;;;19.49;47.47;95554.59;4987933;28;20205;-81
2022/07/12 06:45:39;;;;;;;0.40;0.40;;;19.40;63.00;;;19.55;47.38;95548.34;4994918;28;20710;-79
2022/07/12 06:48:07;;;;;;;0.45;0.45;;;19.40;63.00;;;19.62;47.23;95545.59;5000462;28;20209;-78
2022/07/12 06:50:34;;;;;;;0.43;0.43;;;19.50;63.10;;;19.66;46.69;95544.91;5012485;28;20224;-79
2022/07/12 06:53:01;;;;;;;0.50;0.50;;;19.50;63.10;;;19.74;46.80;95549.03;5017630;28;20206;-78
2022/07/12 06:55:30;;;;;;;0.40;0.40;;;19.60;62.80;;;19.80;46.74;95547.31;5028807;28;20242;-79
2022/07/12 06:57:57;;;;;;;0.40;0.40;;;19.70;63.00;;;19.86;46.26;95542.91;5025807;28;20546;-78
2022/07/12 07:00:24;;;;;;;0.40;0.40;;;19.70;62.80;;;19.92;46.70;95542.78;4995781;28;20228;-78
2022/07/12 07:02:52;;;;;;;0.40;0.40;;;19.80;62.80;;;20.02;46.23;95546.69;5020085;28;20193;-78
2022/07/12 07:05:20;;;;;;;0.50;0.50;;;19.80;62.50;;;20.05;46.77;95538.25;5030848;28;20216;-79
2022/07/12 07:07:47;;;;;;;0.40;0.40;;;19.90;63.00;;;20.16;46.17;95542.72;5009259;28;20205;-79
2022/07/12 07:10:14;;;;;;;0.45;0.45;;;20.00;62.30;;;20.23;46.26;95550.59;5010193;28;20220;-79
2022/07/12 07:12:42;;;;;;;0.50;0.50;;;20.10;62.60;;;20.31;46.49;95537.69;5011811;28;20207;-79
2022/07/12 07:15:09;;;;;;;0.40;0.40;;;20.20;62.50;;;20.40;46.38;95537.31;5029779;28;20207;-79
2022/07/12 07:17:37;;;;;;;0.40;0.40;;;20.20;62.10;;;20.51;46.14;95546.28;5012271;28;20215;-79
2022/07/12 07:20:05;;;;;;;0.40;0.40;;;20.30;62.40;;;20.59;45.97;95545.91;5008379;28;20295;-79
2022/07/12 07:22:32;;;;;;;0.30;0.30;;;20.40;61.80;;;20.63;45.16;95544.38;4993870;28;20204;-79
2022/07/12 07:24:59;;;;;;;0.40;0.40;;;20.50;61.70;;;20.71;46.02;95543.19;5011336;28;20211;-79
2022/07/12 07:27:26;;;;;;;0.40;0.40;;;20.50;62.00;;;20.78;45.45;95550.00;5011285;28;20204;-79
2022/07/12 07:32:39;;;;;;;0.40;0.40;;;20.70;61.90;;;20.89;45.38;95550.19;5031056;28;20293;-79
2022/07/12 07:35:07;;;;;;;0.40;0.40;;;20.70;61.70;;;20.95;44.99;95550.00;5030154;28;20195;-79
2022/07/12 07:37:34;;;;;;;0.40;0.40;;;20.80;61.30;;;21.00;44.86;95546.63;5014999;28;20644;-79
2022/07/12 07:40:02;;;;;;;0.40;0.40;;;20.80;61.30;;;21.10;45.33;95557.47;5021643;28;20220;-78
2022/07/12 07:42:29;;;;;;;0.40;0.40;;;20.90;61.40;;;21.19;44.43;95557.03;4979253;28;20666;-79
2022/07/12 07:44:56;;;;;;;0.40;0.40;;;21.00;60.80;;;21.22;43.34;95553.91;4992110;28;20197;-78
2022/07/12 07:47:48;;;;;;;0.40;0.40;;;21.00;60.40;;;21.31;43.43;95554.31;5015959;28;20298;-79
2022/07/12 07:50:36;;;;;;;0.40;0.40;;;21.10;60.20;;;21.44;43.61;95565.44;5017674;28;20213;-79
2022/07/12 07:53:04;;;;;;;0.40;0.40;;;21.30;60.50;;;21.55;43.69;95555.72;4995408;28;20198;-79
2022/07/12 07:55:32;;;;;;;0.30;0.30;;;21.30;60.40;;;21.68;43.74;95559.94;5030181;28;20637;-80
2022/07/12 07:58:00;;;;;;;0.43;0.43;;;21.40;60.50;;;21.86;43.45;95558.03;5011402;28;20206;-79
2022/07/12 08:00:28;;;;;;;0.50;0.50;;;21.60;60.60;;;22.00;43.17;95548.59;4995239;28;20635;-78
2022/07/12 08:02:55;;;;;;;0.30;0.30;;;21.70;60.20;;;22.15;43.41;95555.97;5011891;28;20209;-78
2022/07/12 08:05:23;;;;;;;0.40;0.40;;;21.90;60.50;;;22.29;41.88;95556.44;4999873;28;20267;-80
2022/07/12 08:07:56;;;;;;;0.40;0.40;;;22.00;59.10;;;22.35;41.67;95566.13;4976792;28;20205;-79
2022/07/12 08:10:25;;;;;;;0.40;0.40;;;22.10;59.10;;;22.42;41.85;95554.44;4972537;28;20252;-79
2022/07/12 08:12:52;;;;;;;0.40;0.40;;;22.30;59.00;;;22.49;41.69;95555.84;4993459;28;20227;-80
2022/07/12 08:15:19;;;;;;;0.30;0.30;;;22.30;60.00;;;22.53;41.40;95556.97;5013247;28;20691;-81
2022/07/12 08:17:46;;;;;;;0.38;0.38;;;22.40;58.50;;;22.53;39.92;95561.50;5003977;28;20205;-79
2022/07/12 08:20:21;;;;;;;0.43;0.43;;;22.40;57.40;;;22.51;39.98;95563.66;5000330;28;20240;-80
2022/07/12 08:23:09;;;;;;;0.40;0.40;;;22.50;56.50;;;22.45;40.18;95565.44;4990663;28;20259;-80
2022/07/12 08:25:36;;;;;;;0.30;0.30;;;22.50;57.50;;;22.42;40.60;95570.47;4991646;28;20219;-80
2022/07/12 08:28:04;;;;;;;0.30;0.30;;;22.40;57.50;;;22.37;40.29;95569.34;5001893;28;20293;-80
2022/07/12 08:30:31;;;;;;;0.40;0.40;;;22.40;56.70;;;22.34;40.69;95577.06;4991076;28;20234;-79
2022/07/12 08:32:58;;;;;;;0.40;0.40;;;22.30;56.90;;;22.31;40.66;95564.97;4985866;28;20211;-80
2022/07/12 08:35:25;;;;;;;0.50;0.50;;;22.30;57.20;;;22.33;40.47;95578.91;5021909;28;22259;-78
2022/07/12 08:37:52;;;;;;;0.40;0.40;;;22.30;57.10;;;22.37;40.99;95574.69;4991427;28;20699;-79
2022/07/12 08:40:20;;;;;;;0.40;0.40;;;22.30;57.40;;;22.43;40.95;95574.78;5001765;28;20235;-79
2022/07/12 08:42:48;;;;;;;0.40;0.40;;;22.30;57.80;;;22.49;40.54;95576.44;4996294;28;20226;-80
2022/07/12 08:45:16;;;;;;;0.30;0.30;;;22.40;57.60;;;22.54;40.60;95573.81;5014044;28;20251;-80
2022/07/12 08:47:43;;;;;;;0.40;0.40;;;22.50;57.60;;;22.61;41.06;95566.41;5008059;28;20571;-79
2022/07/12 08:50:19;;;;;;;0.40;0.40;;;22.50;57.60;;;22.69;40.54;95559.78;4994355;28;20204;-80
2022/07/12 08:52:50;;;;;;;0.30;0.30;;;22.60;57.20;;;22.73;40.87;95565.44;5011797;28;20207;-80
2022/07/12 08:55:36;;;;;;;0.40;0.40;;;22.70;57.50;;;22.77;40.80;95563.91;4991392;28;20237;-80
2022/07/12 08:58:06;;;;;;;0.40;0.40;;;22.70;57.40;;;22.79;41.20;95565.25;4990716;28;20557;-79
2022/07/12 09:00:35;;;;;;;0.40;0.40;;;22.70;57.80;;;22.82;39.57;95563.94;4993170;28;20603;-80
2022/07/12 09:03:03;;;;;;;0.40;0.40;;;22.70;56.80;;;22.81;39.53;95567.66;4992774;28;20574;-79
2022/07/12 09:05:33;;;;;;;0.40;0.40;;;22.80;55.80;;;22.86;39.63;95573.06;4983510;28;20294;-79
2022/07/12 09:08:09;;;;;;;0.30;0.30;;;22.80;56.40;;;22.91;39.39;95566.94;4989903;28;20212;-78
2022/07/12 09:10:55;;;;;;;0.40;0.40;;;22.80;56.10;;;22.98;39.84;95562.19;4989734;28;20950;-79
2022/07/12 09:13:53;;;;;;;0.30;0.30;;;22.90;56.80;;;23.12;40.27;95563.41;4977326;28;20201;-78
2022/07/12 09:16:26;;;;;;;0.30;0.30;;;23.00;56.70;;;23.23;39.99;95564.31;4990713;28;20983;-79
2022/07/12 09:19:13;;;;;;;0.32;0.32;;;23.10;55.80;;;23.30;40.13;95564.91;4985415;28;20234;-79
2022/07/12 09:21:54;;;;;;;0.40;0.40;;;23.20;56.50;;;23.33;39.62;95571.63;5015047;28;20240;-79
2022/07/12 09:24:25;;;;;;;0.28;0.28;;;23.20;55.90;;;23.41;39.85;95573.00;5004654;28;20680;-78
2022/07/12 09:27:04;;;;;;;0.30;0.30;;;23.30;56.40;;;23.50;39.50;95563.44;4994466;28;20223;-80
2022/07/12 09:29:33;;;;;;;0.43;0.43;;;23.40;56.40;;;23.60;39.31;95562.69;5002626;28;20227;-79
2022/07/12 09:37:46;;;;;;;0.40;0.40;;;23.70;54.20;;;23.91;36.99;95561.00;5008389;28;20271;-79
2022/07/12 09:40:14;;;;;;;0.55;0.55;;;23.90;53.90;;;23.97;35.89;95561.84;5033084;28;20341;-79
2022/07/12 09:42:42;;;;;;;0.30;0.30;;;23.90;52.50;;;24.08;37.08;95557.34;5015764;28;20216;-78
2022/07/12 09:45:10;;;;;;;0.40;0.40;;;24.00;53.50;;;24.14;36.74;95562.47;4998669;28;20204;-78
2022/07/12 09:47:38;;;;;;;0.50;0.50;;;24.10;52.90;;;24.22;37.42;95552.31;4992417;28;20192;-78
2022/07/12 09:50:09;;;;;;;0.40;0.40;;;24.10;53.70;;;24.32;37.17;95562.25;5006196;28;20212;-78
2022/07/12 09:52:41;;;;;;;0.40;0.40;;;24.10;53.70;;;24.39;37.57;95554.75;4988974;28;20352;-78
2022/07/12 09:55:10;;;;;;;0.30;0.30;;;24.20;53.10;;;24.48;36.96;95560.44;5004905;28;20200;-79
2022/07/12 09:57:41;;;;;;;0.40;0.40;;;24.30;53.30;;;24.60;37.55;95566.34;4996441;28;20280;-79
2022/07/12 10:00:11;;;;;;;0.30;0.30;;;24.40;54.00;;;24.74;37.57;95558.63;5005258;28;20314;-79
2022/07/12 10:02:39;;;;;;;0.30;0.30;;;24.50;53.80;;;24.84;37.44;95561.34;5009859;28;20875;-79
2022/07/12 10:05:10;;;;;;;0.30;0.30;;;24.60;54.10;;;24.90;37.46;95560.25;5006296;28;20296;-78
2022/07/12 10:07:38;;;;;;;0.30;0.30;;;24.80;53.80;;;24.92;36.96;95568.03;4978957;28;20220;-79
2022/07/12 10:10:08;;;;;;;0.30;0.30;;;24.80;53.00;;;24.82;36.17;95573.41;4977312;28;20220;-79
2022/07/12 10:12:36;;;;;;;0.60;0.60;;;24.80;52.40;;;24.68;36.17;95568.56;4994044;28;20541;-81
2022/07/12 10:15:10;;;;;;;0.30;0.30;;;24.70;52.10;;;24.54;36.32;95570.88;5002793;28;20209;-81
2022/07/12 10:17:37;;;;;;;0.30;0.30;;;24.70;52.70;;;24.40;36.63;95562.56;4993354;28;20296;-80
2022/07/12 10:20:24;;;;;;;0.30;0.30;;;24.60;52.30;;;24.30;36.93;95575.91;4993711;28;20304;-80
2022/07/12 10:23:12;;;;;;;0.30;0.30;;;24.50;53.20;;;24.25;37.24;95583.94;4987484;28;20753;-80
2022/07/12 10:25:39;;;;;;;0.40;0.40;;;24.40;53.00;;;24.14;37.59;95575.03;5008785;28;20227;-80
2022/07/12 10:28:06;;;;;;;0.30;0.30;;;24.30;53.40;;;24.12;37.68;95572.63;4993519;28;20200;-80
2022/07/12 10:30:47;;;;;;;0.30;0.30;;;24.20;53.60;;;24.08;37.44;95570.72;5012561;28;20224;-80
2022/07/12 10:33:21;;;;;;;0.50;0.50;;;24.20;52.90;;;24.02;36.35;95575.25;5005510;28;20216;-81
2022/07/12 10:35:59;;;;;;;0.55;0.55;;;24.10;52.00;;;23.95;35.83;95564.78;5029945;28;20260;-79
2022/07/12 10:38:28;;;;;;;0.28;0.28;;;24.10;52.20;;;23.90;36.33;95562.06;4989076;28;20200;-80